createdAt,value
2022-09-15T00:00:46.516Z,13.18
2022-09-15T00:20:46.485Z,13.06
2022-09-15T00:40:46.440Z,13.01
2022-09-15T01:00:46.432Z,12.74
2022-09-15T01:20:46.365Z,12.34
2022-09-15T01:40:46.332Z,11.94
2022-09-15T02:00:46.315Z,11.7
2022-09-15T02:20:46.252Z,11.9
2022-09-15T02:40:46.216Z,12.14
2022-09-15T03:00:46.235Z,12.38
2022-09-15T03:20:46.145Z,12.79
2022-09-15T03:40:46.101Z,13.07
2022-09-15T04:00:46.116Z,13.12
2022-09-15T04:20:46.027Z,13.19
2022-09-15T04:40:45.983Z,13.25
2022-09-15T05:00:46.039Z,13.24
2022-09-15T06:00:45.826Z,13.52
2022-09-15T06:20:45.794Z,13.66
2022-09-15T06:40:45.760Z,13.85
2022-09-15T07:00:45.719Z,14.01
2022-09-15T07:20:45.704Z,14.28
2022-09-15T07:40:45.638Z,14.71
2022-09-15T08:00:45.619Z,14.91
2022-09-15T08:20:45.554Z,15.16
2022-09-15T08:40:45.544Z,15.64
2022-09-15T09:00:45.486Z,15.79
2022-09-15T09:20:45.457Z,16.18
2022-09-15T10:00:45.368Z,16.24
2022-09-15T10:20:45.324Z,14.84
2022-09-15T10:40:45.281Z,14.06
2022-09-15T11:00:45.291Z,14.86
2022-09-15T11:20:45.202Z,16
2022-09-15T12:00:45.141Z,17.13
2022-09-15T12:20:45.076Z,16.77
2022-09-15T13:01:07.063Z,17.57
2022-09-15T13:20:44.966Z,18.04
2022-09-15T13:40:44.930Z,18
2022-09-15T14:00:44.956Z,18.27
2022-09-15T14:20:44.858Z,18.18
2022-09-15T14:40:44.857Z,17.58
2022-09-15T15:00:44.796Z,17.2
2022-09-15T15:20:44.730Z,16.62
2022-09-15T16:00:44.696Z,16.59
2022-09-15T16:20:44.599Z,16.55
2022-09-15T16:40:44.597Z,16.65
2022-09-15T17:00:44.568Z,16.24
2022-09-15T17:20:44.487Z,15.92
2022-09-15T17:40:44.443Z,15.67
2022-09-15T18:20:44.357Z,15.26
2022-09-15T18:40:44.319Z,14.91
2022-09-15T19:00:44.275Z,14.5
2022-09-15T19:20:44.246Z,14.29
2022-09-15T19:40:44.221Z,14.5
2022-09-15T20:00:44.164Z,14.64
2022-09-15T20:20:44.135Z,14.22
2022-09-15T20:40:44.087Z,13.85
2022-09-15T21:00:44.047Z,13.66
2022-09-15T21:20:44.010Z,13.65
2022-09-15T21:40:44.014Z,13.32
2022-09-15T22:00:43.949Z,13.19
2022-09-15T22:20:43.903Z,13.12
2022-09-15T22:40:43.887Z,13.08
2022-09-15T23:00:43.844Z,13.03
2022-09-15T23:20:43.807Z,13.02
2022-09-15T23:40:43.745Z,12.96
